Time;durP1;ratioP1;P1;durP2;ratioP2;P2;SDS_P1;SDS_P2;PMS_P1;PMS_P2;Temp;Humidity;BMP_temperature;BMP_pressure;BME280_temperature;BME280_humidity;BME280_pressure;Samples;Min_cycle;Max_cycle;Signal;HPM_P1;HPM_P2
2022/10/08 00:04:24;;;;;;;10.82;5.10;;;;;;;12.54;67.41;100522.72;10445844;28;20065;-66
2022/10/08 00:09:25;;;;;;;8.88;5.10;;;;;;;12.53;67.01;100521.06;10446676;28;20069;-67
2022/10/08 00:14:26;;;;;;;11.98;5.05;;;;;;;12.54;67.11;100528.09;10445669;28;21094;-67
2022/10/08 00:19:28;;;;;;;14.98;5.70;;;;;;;12.54;67.32;100520.00;10445818;28;20055;-66
2022/10/08 00:24:30;;;;;;;8.38;4.53;;;;;;;12.53;67.20;100519.19;10444513;28;20045;-65
2022/10/08 00:29:32;;;;;;;25.02;9.68;;;;;;;12.47;67.58;100514.53;10442250;28;20083;-67
2022/10/08 00:34:33;;;;;;;11.63;5.55;;;;;;;12.49;67.62;100528.66;10418160;28;20525;-67
2022/10/08 00:39:35;;;;;;;9.40;4.90;;;;;;;12.53;67.37;100524.56;10445236;28;20072;-66
2022/10/08 00:44:45;;;;;;;10.13;5.07;;;;;;;12.63;67.44;100519.75;10445180;28;20135;-66
2022/10/08 00:49:50;;;;;;;10.90;5.05;;;;;;;12.66;67.60;100515.88;10444608;28;20511;-67
2022/10/08 00:54:51;;;;;;;10.07;5.03;;;;;;;12.74;67.21;100510.38;10440628;28;20590;-66
2022/10/08 00:59:53;;;;;;;12.18;5.40;;;;;;;12.82;67.65;100506.75;10443605;28;20156;-67
2022/10/08 01:04:54;;;;;;;13.32;5.95;;;;;;;12.90;67.23;100502.06;10441729;28;20048;-66
2022/10/08 01:10:10;;;;;;;10.25;5.15;;;;;;;12.99;67.20;100505.50;10441561;28;20080;-66
2022/10/08 01:15:31;;;;;;;11.73;4.55;;;;;;;13.07;66.79;100497.31;10440621;28;20037;-66
2022/10/08 01:20:53;;;;;;;8.57;4.38;;;;;;;13.15;67.47;100495.53;10428302;28;20469;-66
2022/10/08 01:26:12;;;;;;;9.63;5.20;;;;;;;13.20;67.48;100490.41;10442206;28;20084;-66
2022/10/08 01:31:23;;;;;;;10.15;4.40;;;;;;;13.29;67.35;100494.66;10443739;28;20132;-66
2022/10/08 01:36:30;;;;;;;12.90;5.10;;;;;;;13.36;67.10;100500.16;10444631;28;20049;-66
2022/10/08 01:41:32;;;;;;;14.60;5.20;;;;;;;13.36;66.97;100497.47;10425106;28;20081;-71
2022/10/08 01:46:37;;;;;;;11.15;3.95;;;;;;;13.43;67.29;100503.78;10440892;28;20135;-72
2022/10/08 01:52:03;;;;;;;7.55;4.13;;;;;;;13.43;67.39;100503.78;10443197;28;20152;-68
2022/10/08 01:57:09;;;;;;;10.23;4.22;;;;;;;13.46;67.44;100508.78;10441731;28;20514;-71
2022/10/08 02:02:19;;;;;;;9.65;4.05;;;;;;;13.45;67.32;100505.25;10443631;28;20140;-71
2022/10/08 02:07:27;;;;;;;13.50;4.97;;;;;;;13.42;67.84;100502.09;10442486;28;20460;-72
2022/10/08 02:12:30;;;;;;;10.30;4.00;;;;;;;13.40;67.52;100506.84;10443758;28;20068;-71
2022/10/08 02:18:05;;;;;;;10.35;4.65;;;;;;;13.33;67.67;100503.22;10448501;28;20462;-72
2022/10/08 02:23:18;;;;;;;9.00;4.32;;;;;;;13.27;67.68;100499.44;10446076;28;20091;-69
2022/10/08 02:29:10;;;;;;;23.75;5.70;;;;;;;13.20;67.48;100502.03;10448857;28;20106;-70
2022/10/08 02:34:19;;;;;;;7.20;4.35;;;;;;;13.12;67.49;100504.00;10414847;28;20045;-72
2022/10/08 02:39:25;;;;;;;12.20;5.47;;;;;;;13.03;67.78;100487.94;10450877;28;20124;-71
2022/10/08 02:44:48;;;;;;;8.00;4.18;;;;;;;12.93;67.46;100500.03;10433234;28;20140;-73
2022/10/08 02:49:55;;;;;;;8.35;4.55;;;;;;;12.88;67.84;100503.28;10448948;28;20216;-70
2022/10/08 02:54:59;;;;;;;13.17;6.33;;;;;;;12.79;67.22;100517.91;10448648;28;20135;-71
2022/10/08 03:00:01;;;;;;;10.55;5.00;;;;;;;12.62;67.93;100507.31;10447026;28;20029;-71
2022/10/08 03:05:14;;;;;;;9.80;4.70;;;;;;;12.53;68.59;100503.00;10448399;28;20119;-71
2022/10/08 03:10:17;;;;;;;9.18;4.93;;;;;;;12.44;68.26;100504.09;10431093;28;20457;-71
2022/10/08 03:15:19;;;;;;;9.23;4.47;;;;;;;12.39;68.47;100510.06;10449253;28;20521;-70
2022/10/08 03:20:22;;;;;;;11.70;4.30;;;;;;;12.34;68.35;100511.63;10430505;28;20494;-72
2022/10/08 03:25:23;;;;;;;10.60;4.80;;;;;;;12.25;68.42;100521.66;10421147;28;20439;-69
2022/10/08 03:30:25;;;;;;;12.55;5.32;;;;;;;12.17;68.48;100524.44;10448366;28;20562;-73
2022/10/08 03:35:26;;;;;;;12.80;4.82;;;;;;;12.10;68.71;100529.69;10429695;28;20090;-72
2022/10/08 03:40:27;;;;;;;14.40;5.18;;;;;;;12.03;68.75;100537.69;10429905;28;20153;-70
2022/10/08 03:45:29;;;;;;;10.07;6.07;;;;;;;11.96;68.44;100531.31;10448212;28;20071;-72
2022/10/08 03:50:30;;;;;;;10.65;5.78;;;;;;;11.87;68.85;100543.16;10446861;28;20072;-68
2022/10/08 03:55:34;;;;;;;12.80;5.13;;;;;;;11.76;68.56;100544.41;10428752;28;20378;-69
2022/10/08 04:00:35;;;;;;;11.00;5.85;;;;;;;11.68;68.89;100557.94;10445271;28;20061;-72
2022/10/08 04:05:37;;;;;;;7.72;4.40;;;;;;;11.51;68.80;100562.56;10446537;28;20120;-70
2022/10/08 04:10:38;;;;;;;10.18;5.32;;;;;;;11.36;69.63;100570.56;10445985;28;20060;-69
2022/10/08 04:15:40;;;;;;;10.63;5.55;;;;;;;11.35;69.21;100568.88;10427872;28;20151;-71
2022/10/08 04:20:43;;;;;;;12.52;6.32;;;;;;;11.32;69.46;100561.16;10444562;28;20120;-70
2022/10/08 04:25:51;;;;;;;11.00;5.57;;;;;;;11.31;69.29;100556.78;10444807;28;20044;-72
2022/10/08 04:31:15;;;;;;;13.30;5.20;;;;;;;11.29;69.40;100564.19;10445455;28;20135;-72
2022/10/08 04:36:22;;;;;;;10.93;4.78;;;;;;;11.26;69.66;100564.56;10444831;28;20036;-74
2022/10/08 04:41:25;;;;;;;10.70;5.60;;;;;;;11.23;69.39;100565.72;10443996;28;20067;-71
2022/10/08 04:46:27;;;;;;;10.00;5.03;;;;;;;11.19;69.35;100568.97;10442309;28;20421;-71
2022/10/08 04:51:28;;;;;;;11.40;5.70;;;;;;;11.15;69.70;100578.41;10445585;28;20053;-73
2022/10/08 04:56:33;;;;;;;11.55;4.53;;;;;;;11.11;69.45;100589.50;10443513;28;20033;-72
2022/10/08 05:01:34;;;;;;;13.25;5.45;;;;;;;11.06;69.33;100593.75;10444096;28;20036;-74
2022/10/08 05:06:36;;;;;;;16.83;5.95;;;;;;;11.00;69.50;100594.41;10443968;28;20037;-71
2022/10/08 05:11:37;;;;;;;11.40;5.38;;;;;;;10.90;69.74;100589.25;10444528;28;20135;-73
2022/10/08 05:16:39;;;;;;;9.48;4.43;;;;;;;10.82;69.73;100594.63;10442216;28;20135;-71
2022/10/08 05:21:40;;;;;;;8.90;4.90;;;;;;;10.64;70.16;100598.38;10443887;28;20094;-73
2022/10/08 05:26:41;;;;;;;7.63;4.80;;;;;;;10.65;69.62;100596.53;10444713;28;20152;-72
2022/10/08 05:31:59;;;;;;;;;;;;;;;10.68;69.54;100598.84;10442924;28;20148;-73
2022/10/08 05:37:01;;;;;;;11.32;4.82;;;;;;;10.67;69.32;100602.56;10444153;28;20019;-66
2022/10/08 05:42:02;;;;;;;17.10;5.60;;;;;;;10.60;69.58;100612.31;10443703;28;20084;-65
2022/10/08 05:47:04;;;;;;;14.52;5.07;;;;;;;10.54;69.75;100618.38;10439881;28;20152;-68
2022/10/08 05:52:05;;;;;;;12.13;5.07;;;;;;;10.60;69.62;100623.06;10451494;28;20068;-67
2022/10/08 05:57:06;;;;;;;10.90;5.65;;;;;;;10.64;69.60;100627.09;10423288;28;20069;-67
2022/10/08 06:02:09;;;;;;;8.32;4.57;;;;;;;10.66;69.45;100628.63;10427114;28;20128;-66
2022/10/08 06:07:11;;;;;;;9.68;4.72;;;;;;;10.66;69.53;100630.44;10434301;28;20131;-67
2022/10/08 06:12:12;;;;;;;8.30;4.28;;;;;;;10.70;69.58;100626.41;10434615;28;20040;-65
2022/10/08 06:17:14;;;;;;;11.25;4.95;;;;;;;10.71;69.38;100625.41;10450852;28;20065;-65
2022/10/08 06:22:15;;;;;;;8.13;4.70;;;;;;;10.68;69.42;100634.66;10452265;28;20132;-66
2022/10/08 06:27:17;;;;;;;11.50;4.50;;;;;;;10.66;69.61;100633.13;10451522;28;20458;-66
2022/10/08 06:32:18;;;;;;;8.38;4.28;;;;;;;10.66;69.39;100639.38;10450933;28;20041;-67
2022/10/08 06:37:19;;;;;;;9.40;4.07;;;;;;;10.71;69.28;100637.00;10432810;28;20756;-65
2022/10/08 06:42:21;;;;;;;11.65;4.78;;;;;;;10.78;69.54;100644.38;10451118;28;20079;-67
2022/10/08 06:47:22;;;;;;;11.02;5.07;;;;;;;10.89;69.42;100635.97;10431562;28;20112;-67
2022/10/08 06:52:24;;;;;;;9.45;3.78;;;;;;;10.89;69.51;100652.09;10449616;28;20102;-67
2022/10/08 06:57:25;;;;;;;9.50;3.65;;;;;;;10.95;69.98;100661.34;10447444;28;20128;-66
2022/10/08 07:02:26;;;;;;;7.88;3.53;;;;;;;11.09;69.66;100660.63;10447044;28;20503;-67
2022/10/08 07:07:28;;;;;;;12.35;4.80;;;;;;;11.24;69.95;100664.31;10448352;28;20642;-67
2022/10/08 07:12:31;;;;;;;9.82;4.63;;;;;;;11.37;70.44;100658.34;10447341;28;20045;-67
2022/10/08 07:17:33;;;;;;;14.35;5.95;;;;;;;11.55;70.22;100654.59;10448676;28;20075;-65
2022/10/08 07:22:34;;;;;;;14.52;5.80;;;;;;;11.76;70.79;100670.16;10431828;28;20040;-67
2022/10/08 07:27:35;;;;;;;14.98;6.18;;;;;;;11.96;70.73;100673.28;10449428;28;20072;-67
2022/10/08 07:32:41;;;;;;;10.82;5.15;;;;;;;12.20;71.36;100680.38;10446741;28;20072;-66
2022/10/08 07:37:43;;;;;;;12.02;3.90;;;;;;;12.47;71.11;100687.94;10449074;28;20543;-67
2022/10/08 07:42:44;;;;;;;12.93;2.97;;;;;;;12.76;71.52;100682.84;10449206;28;20136;-66
2022/10/08 07:47:46;;;;;;;9.40;3.13;;;;;;;13.05;71.26;100679.34;10446078;28;20619;-66
2022/10/08 07:52:47;;;;;;;6.30;2.20;;;;;;;13.27;70.68;100680.31;10444704;28;20647;-68
2022/10/08 07:57:50;;;;;;;8.75;2.70;;;;;;;13.41;70.50;100682.19;10443608;28;20119;-67
2022/10/08 08:02:51;;;;;;;12.43;2.63;;;;;;;13.59;69.87;100687.22;10444153;28;20144;-65
2022/10/08 08:07:52;;;;;;;7.85;1.50;;;;;;;13.84;69.63;100686.88;10444681;28;20048;-67
2022/10/08 08:12:54;;;;;;;7.63;1.10;;;;;;;14.19;68.91;100687.09;10442590;28;20067;-67
2022/10/08 08:17:55;;;;;;;2.95;0.70;;;;;;;14.52;68.07;100682.03;10441431;28;20148;-67
2022/10/08 08:22:56;;;;;;;6.25;1.00;;;;;;;14.81;67.30;100691.91;10441918;28;20136;-67
2022/10/08 08:27:59;;;;;;;4.00;0.50;;;;;;;15.05;66.15;100698.75;10440624;28;20120;-67
2022/10/08 08:33:01;;;;;;;6.75;0.82;;;;;;;15.53;65.28;100694.47;10443978;28;20041;-67
2022/10/08 08:38:02;;;;;;;9.98;1.00;;;;;;;15.98;64.25;100698.47;10444112;28;20045;-68
2022/10/08 08:43:04;;;;;;;10.35;2.25;;;;;;;16.34;63.34;100705.44;10445586;28;20488;-69
2022/10/08 08:48:16;;;;;;;7.30;1.13;;;;;;;16.29;61.03;100715.22;10446965;28;20045;-68
2022/10/08 08:53:18;;;;;;;5.82;0.77;;;;;;;16.43;60.60;100722.38;10441831;28;20128;-68
2022/10/08 08:58:25;;;;;;;4.70;1.10;;;;;;;16.53;60.20;100735.53;10421573;28;20037;-72
2022/10/08 09:03:39;;;;;;;3.88;0.50;;;;;;;16.56;59.66;100744.09;10442855;28;20132;-68
2022/10/08 09:08:56;;;;;;;5.18;0.93;;;;;;;16.78;59.19;100750.19;10440824;28;20049;-68
2022/10/08 09:14:13;;;;;;;3.73;0.50;;;;;;;16.72;59.08;100758.34;10438227;28;20037;-70
2022/10/08 09:19:14;;;;;;;6.27;0.70;;;;;;;16.78;58.41;100761.03;10424358;28;20083;-68
2022/10/08 09:24:18;;;;;;;4.80;0.95;;;;;;;16.85;58.41;100761.09;10448358;28;20290;-69
2022/10/08 09:29:32;;;;;;;2.38;0.45;;;;;;;16.87;58.23;100763.63;10420775;28;20036;-68
2022/10/08 09:34:33;;;;;;;2.85;0.90;;;;;;;16.91;58.62;100779.28;10452412;28;20068;-68
2022/10/08 09:39:37;;;;;;;7.45;1.00;;;;;;;16.95;59.04;100787.84;10436394;28;20131;-67
2022/10/08 09:44:45;;;;;;;1.05;0.65;;;;;;;17.12;58.15;100794.56;10452393;28;20139;-71
2022/10/08 09:50:15;;;;;;;2.67;0.40;;;;;;;17.17;57.75;100800.19;10445970;28;20122;-68
2022/10/08 09:55:21;;;;;;;6.35;0.60;;;;;;;17.29;57.41;100802.28;10450524;28;20586;-68
2022/10/08 10:00:26;;;;;;;2.15;1.33;;;;;;;17.35;57.23;100813.16;10450347;28;20065;-67
2022/10/08 10:05:33;;;;;;;1.83;0.50;;;;;;;17.53;56.79;100820.66;10427838;28;20135;-69
2022/10/08 10:10:39;;;;;;;1.55;0.35;;;;;;;17.53;56.70;100819.84;10442842;28;20079;-67
2022/10/08 10:15:48;;;;;;;3.70;0.47;;;;;;;17.75;56.61;100831.31;10449344;28;20068;-69
2022/10/08 10:20:57;;;;;;;2.28;0.65;;;;;;;17.95;55.84;100829.44;10451438;28;20401;-68
2022/10/08 10:26:06;;;;;;;2.08;0.50;;;;;;;17.71;55.60;100827.34;10430727;28;20107;-68
2022/10/08 10:31:26;;;;;;;2.15;0.50;;;;;;;17.63;55.95;100828.41;10445013;28;20041;-69
2022/10/08 10:36:36;;;;;;;2.47;0.50;;;;;;;17.80;55.96;100829.63;10423679;28;20434;-68
2022/10/08 10:41:43;;;;;;;2.55;1.48;;;;;;;17.66;55.59;100838.03;10447843;28;20053;-69
2022/10/08 10:46:50;;;;;;;4.05;0.60;;;;;;;17.54;56.28;100826.97;10443591;28;20041;-68
2022/10/08 10:52:30;;;;;;;3.17;0.70;;;;;;;17.69;55.97;100840.31;10445313;28;20541;-67
2022/10/08 10:58:09;;;;;;;6.55;1.08;;;;;;;17.91;55.57;100833.63;10448264;28;20041;-68
2022/10/08 11:03:52;;;;;;;4.93;1.13;;;;;;;17.84;55.92;100836.34;10448127;28;20076;-68
2022/10/08 11:09:01;;;;;;;3.70;0.77;;;;;;;17.93;55.33;100845.13;10440562;28;20041;-68
2022/10/08 11:14:35;;;;;;;6.20;0.85;;;;;;;17.95;54.72;100844.91;10445040;28;20140;-68
2022/10/08 11:19:54;;;;;;;4.97;0.80;;;;;;;18.28;54.10;100835.81;10407677;28;20561;-69
2022/10/08 11:25:24;;;;;;;2.88;0.60;;;;;;;18.30;53.70;100845.44;10447038;28;20041;-69
2022/10/08 11:30:58;;;;;;;2.10;0.50;;;;;;;18.51;52.83;100844.31;10402687;28;20037;-67
2022/10/08 11:36:27;;;;;;;2.42;0.40;;;;;;;18.60;52.68;100853.06;10442692;28;20088;-69
2022/10/08 11:42:06;;;;;;;1.20;0.32;;;;;;;18.36;52.30;100855.44;10423972;28;20053;-69
2022/10/08 11:47:41;;;;;;;2.67;0.55;;;;;;;18.44;51.90;100848.94;10425309;28;20076;-69
2022/10/08 11:52:42;;;;;;;2.55;0.60;;;;;;;18.65;51.60;100844.25;10446866;28;20060;-69
2022/10/08 11:58:04;;;;;;;4.18;0.47;;;;;;;18.92;51.24;100850.44;10444309;28;20052;-70
2022/10/08 12:03:23;;;;;;;3.10;0.80;;;;;;;18.97;50.12;100843.25;10446430;28;20037;-68
2022/10/08 12:08:46;;;;;;;4.50;0.40;;;;;;;18.97;49.59;100840.50;10424663;28;20131;-71
2022/10/08 12:14:13;;;;;;;4.93;0.60;;;;;;;19.15;48.89;100845.22;10445143;28;20351;-70
2022/10/08 12:24:37;;;;;;;2.58;0.60;;;;;;;19.75;46.70;100842.03;10459173;28;20525;-71
2022/10/08 12:29:57;;;;;;;4.18;0.85;;;;;;;19.76;45.64;100842.88;10452225;28;20051;-71
2022/10/08 12:35:00;;;;;;;2.35;0.40;;;;;;;20.27;44.81;100836.22;10449730;28;20080;-69
2022/10/08 12:40:11;;;;;;;5.63;0.40;;;;;;;19.77;44.07;100839.91;10457757;28;20057;-70
2022/10/08 12:45:12;;;;;;;1.75;0.40;;;;;;;19.54;44.01;100845.13;10446374;28;20511;-68
2022/10/08 12:50:32;;;;;;;5.07;0.40;;;;;;;19.50;43.92;100833.84;10449062;28;20071;-68
2022/10/08 12:55:50;;;;;;;3.03;0.30;;;;;;;19.49;43.60;100834.06;10447870;28;20079;-69
2022/10/08 13:00:57;;;;;;;2.80;0.43;;;;;;;20.08;43.00;100820.91;10458351;28;20454;-69
2022/10/08 13:06:24;;;;;;;3.67;0.40;;;;;;;20.21;42.98;100816.13;10477113;28;20574;-69
2022/10/08 13:11:26;;;;;;;4.05;0.93;;;;;;;20.76;42.19;100815.25;10472086;28;20045;-68
2022/10/08 13:16:44;;;;;;;2.65;0.30;;;;;;;20.83;41.49;100817.88;10437719;28;20067;-69
2022/10/08 13:21:55;;;;;;;2.25;0.50;;;;;;;21.45;41.33;100830.41;10465688;28;20080;-70
2022/10/08 13:26:57;;;;;;;1.52;0.40;;;;;;;21.31;41.90;100833.34;10449876;28;20040;-70
2022/10/08 13:32:02;;;;;;;6.03;0.60;;;;;;;21.42;41.21;100834.41;10456313;28;20071;-70
2022/10/08 13:37:08;;;;;;;2.08;0.50;;;;;;;21.24;38.61;100829.03;10447645;28;20076;-70
2022/10/08 13:42:15;;;;;;;2.50;0.28;;;;;;;21.75;38.36;100827.56;10444889;28;20666;-69
2022/10/08 13:47:20;;;;;;;2.42;0.40;;;;;;;21.39;39.15;100832.16;10450747;28;20073;-70
2022/10/08 13:52:23;;;;;;;2.85;0.93;;;;;;;21.33;37.87;100844.88;10434781;28;20616;-71
2022/10/08 13:57:24;;;;;;;2.63;0.38;;;;;;;21.26;37.80;100835.94;10460028;28;20030;-72
2022/10/08 14:02:26;;;;;;;4.32;0.30;;;;;;;21.47;37.49;100829.09;10421496;28;20069;-72
2022/10/08 14:07:31;;;;;;;3.55;0.43;;;;;;;21.53;38.04;100828.16;10437418;28;20504;-71
2022/10/08 14:12:34;;;;;;;7.43;0.57;;;;;;;21.51;37.97;100824.00;10448894;28;20123;-70
2022/10/08 14:17:35;;;;;;;2.92;0.40;;;;;;;21.21;38.17;100824.88;10442487;28;20102;-71
2022/10/08 14:22:40;;;;;;;4.10;0.50;;;;;;;20.73;39.22;100829.34;10479888;28;20048;-71
2022/10/08 14:27:42;;;;;;;1.95;0.40;;;;;;;20.84;39.44;100829.66;10462885;28;20044;-69
2022/10/08 14:32:44;;;;;;;3.83;0.50;;;;;;;20.41;39.37;100834.16;10487122;28;20033;-72
2022/10/08 14:37:45;;;;;;;1.73;0.30;;;;;;;20.35;39.69;100837.81;10464802;28;20041;-72
2022/10/08 14:42:48;;;;;;;2.10;0.40;;;;;;;20.27;39.19;100835.41;10495913;28;20037;-71
2022/10/08 14:47:51;;;;;;;6.32;0.80;;;;;;;20.72;38.84;100833.16;10484095;28;20061;-70
2022/10/08 14:52:53;;;;;;;3.95;0.38;;;;;;;20.86;38.82;100839.28;10436120;28;20111;-64
2022/10/08 14:57:54;;;;;;;4.00;0.38;;;;;;;20.83;38.57;100830.69;10403073;28;20069;-72
2022/10/08 15:02:55;;;;;;;2.25;0.40;;;;;;;20.79;38.37;100839.38;10417744;28;20060;-72
2022/10/08 15:07:57;;;;;;;14.90;2.28;;;;;;;20.67;40.23;100830.28;10407775;28;20046;-71
2022/10/08 15:13:00;;;;;;;18.70;2.72;;;;;;;20.81;40.12;100836.38;10420201;28;20044;-72
2022/10/08 15:18:01;;;;;;;3.65;0.40;;;;;;;20.96;40.49;100825.88;10413758;28;20128;-72
2022/10/08 15:23:04;;;;;;;2.90;0.40;;;;;;;20.65;40.71;100829.69;10419478;28;20034;-70
2022/10/08 15:28:06;;;;;;;2.60;0.63;;;;;;;20.41;41.56;100845.09;10421628;28;20045;-70
2022/10/08 15:33:07;;;;;;;4.20;0.80;;;;;;;20.05;42.09;100838.59;10435481;28;20049;-70
2022/10/08 15:38:09;;;;;;;2.85;1.10;;;;;;;19.90;42.35;100855.31;10420079;28;20049;-69
2022/10/08 15:43:10;;;;;;;3.28;0.52;;;;;;;19.78;42.24;100848.94;10431200;28;20476;-69
2022/10/08 15:48:12;;;;;;;2.15;0.30;;;;;;;19.73;41.51;100863.25;10460681;28;20083;-70
2022/10/08 15:53:14;;;;;;;1.58;0.55;;;;;;;19.41;41.19;100857.84;10473618;28;20060;-71
2022/10/08 15:58:17;;;;;;;4.03;0.60;;;;;;;19.32;41.31;100867.34;10462038;28;20049;-72
2022/10/08 16:03:44;;;;;;;4.60;0.68;;;;;;;19.41;41.32;100876.06;10463914;28;20041;-69
2022/10/08 16:08:45;;;;;;;3.08;0.40;;;;;;;19.30;41.71;100879.53;10469177;28;20102;-70
2022/10/08 16:13:53;;;;;;;3.17;0.55;;;;;;;19.16;41.98;100879.59;10468728;28;20041;-69
2022/10/08 16:18:57;;;;;;;9.05;0.60;;;;;;;18.96;42.50;100890.63;10445918;28;20049;-70
2022/10/08 16:23:59;;;;;;;3.78;0.50;;;;;;;18.89;42.52;100889.81;10469823;28;20051;-69
2022/10/08 16:29:04;;;;;;;4.43;0.60;;;;;;;18.72;42.88;100900.38;10460226;28;20075;-69
2022/10/08 16:34:10;;;;;;;5.70;0.40;;;;;;;18.59;43.02;100905.84;10421044;28;20148;-71
2022/10/08 16:39:13;;;;;;;6.25;0.68;;;;;;;18.56;43.00;100917.16;10423681;28;20129;-70
2022/10/08 16:44:17;;;;;;;20.48;7.95;;;;;;;18.42;43.65;100921.81;10443093;28;20080;-69
2022/10/08 16:49:26;;;;;;;14.15;4.95;;;;;;;18.07;44.38;100941.16;10421786;28;20416;-70
2022/10/08 16:54:28;;;;;;;4.43;1.20;;;;;;;17.84;44.90;100957.91;10439443;28;20072;-70
2022/10/08 16:59:29;;;;;;;3.65;0.93;;;;;;;17.70;45.38;100964.38;10436986;28;20132;-69
2022/10/08 17:04:37;;;;;;;7.80;0.95;;;;;;;17.52;45.64;100975.84;10442398;28;20052;-70
2022/10/08 17:09:39;;;;;;;5.03;1.65;;;;;;;17.39;46.02;100973.91;10425554;28;20443;-69
2022/10/08 17:14:40;;;;;;;5.25;1.45;;;;;;;17.22;46.66;100987.06;10439346;28;20060;-69
2022/10/08 17:19:43;;;;;;;5.10;1.23;;;;;;;17.12;47.00;100992.00;10443600;28;20076;-69
2022/10/08 17:24:45;;;;;;;3.80;1.40;;;;;;;16.96;47.37;101001.34;10424532;28;20045;-70
2022/10/08 17:29:46;;;;;;;5.20;1.55;;;;;;;16.74;47.89;101012.28;10443667;28;20595;-70
2022/10/08 17:34:48;;;;;;;4.38;2.25;;;;;;;16.62;48.68;101024.75;10440878;28;20040;-69
2022/10/08 17:39:50;;;;;;;7.05;3.30;;;;;;;16.40;49.10;101027.53;10439653;28;20033;-69
2022/10/08 17:44:52;;;;;;;11.45;6.53;;;;;;;16.16;50.02;101027.97;10442515;28;20064;-68
2022/10/08 17:49:53;;;;;;;10.07;4.95;;;;;;;16.05;50.09;101043.75;10446944;28;20496;-69
2022/10/08 17:54:55;;;;;;;8.57;4.90;;;;;;;15.94;50.51;101044.25;10442619;28;20051;-67
2022/10/08 17:59:56;;;;;;;8.68;4.90;;;;;;;15.82;50.89;101060.22;10447737;28;20098;-68
2022/10/08 18:04:57;;;;;;;6.53;4.25;;;;;;;15.61;51.58;101063.69;10449749;28;20048;-70
2022/10/08 18:09:59;;;;;;;8.32;4.35;;;;;;;15.40;52.11;101066.38;10451735;28;20080;-68
2022/10/08 18:15:00;;;;;;;13.82;6.85;;;;;;;15.20;52.57;101075.09;10449046;28;20135;-71
2022/10/08 18:20:02;;;;;;;20.77;9.50;;;;;;;15.12;52.88;101072.47;10443778;28;20076;-69
2022/10/08 18:25:04;;;;;;;16.83;9.10;;;;;;;14.98;52.85;101073.34;10444283;28;20051;-71
2022/10/08 18:30:06;;;;;;;20.00;7.60;;;;;;;14.82;53.91;101087.91;10443886;28;20064;-69
2022/10/08 18:35:10;;;;;;;9.52;5.43;;;;;;;14.61;54.52;101100.28;10448598;28;20127;-69
2022/10/08 18:40:11;;;;;;;15.05;8.30;;;;;;;14.54;54.43;101104.72;10449205;28;20495;-69
2022/10/08 18:45:12;;;;;;;11.35;6.55;;;;;;;14.51;54.43;101112.34;10450329;28;20535;-68
2022/10/08 18:50:15;;;;;;;10.75;5.07;;;;;;;14.44;54.49;101117.66;10449626;28;20071;-66
2022/10/08 18:55:16;;;;;;;11.77;4.95;;;;;;;14.29;55.14;101123.84;10448085;28;20064;-71
2022/10/08 19:00:18;;;;;;;11.25;4.20;;;;;;;14.22;55.20;101130.19;10450135;28;20095;-68
2022/10/08 19:05:19;;;;;;;10.10;4.03;;;;;;;14.12;55.38;101125.03;10428260;28;20173;-69
2022/10/08 19:10:20;;;;;;;8.98;3.95;;;;;;;14.02;55.95;101130.66;10439778;28;20048;-68
2022/10/08 19:15:22;;;;;;;10.32;5.30;;;;;;;13.88;56.14;101128.72;10447081;28;20920;-72
2022/10/08 19:20:23;;;;;;;15.70;5.93;;;;;;;13.77;56.58;101134.53;10429638;28;20076;-71
2022/10/08 19:25:31;;;;;;;7.82;3.25;;;;;;;13.67;56.63;101137.47;10444494;28;20068;-72
2022/10/08 19:30:34;;;;;;;5.25;1.92;;;;;;;13.62;56.50;101139.84;10445498;28;20251;-69
2022/10/08 19:35:35;;;;;;;4.65;2.05;;;;;;;13.68;56.03;101144.53;10447118;28;20136;-69
2022/10/08 19:40:36;;;;;;;4.65;1.85;;;;;;;13.70;55.74;101150.59;10448105;28;20079;-69
2022/10/08 19:45:38;;;;;;;4.80;1.70;;;;;;;13.73;55.78;101152.97;10417687;28;20069;-72
2022/10/08 19:50:39;;;;;;;6.13;2.00;;;;;;;13.78;55.72;101158.66;10443394;28;20135;-70
2022/10/08 19:55:40;;;;;;;4.28;1.80;;;;;;;13.84;54.71;101168.78;10443600;28;20132;-70
2022/10/08 20:00:42;;;;;;;4.07;0.70;;;;;;;13.84;54.79;101176.03;10442879;28;20068;-70
2022/10/08 20:05:43;;;;;;;3.55;0.70;;;;;;;13.85;54.24;101183.13;10444348;28;20133;-70
2022/10/08 20:10:45;;;;;;;7.35;1.27;;;;;;;13.91;54.38;101193.22;10440641;28;20048;-70
2022/10/08 20:15:46;;;;;;;1.58;1.10;;;;;;;13.90;54.42;101191.53;10444603;28;20136;-71
2022/10/08 20:21:11;;;;;;;3.22;0.90;;;;;;;13.79;55.06;101200.91;10446582;28;20053;-71
2022/10/08 20:26:18;;;;;;;4.85;1.33;;;;;;;13.66;55.09;101204.19;10434815;28;20064;-70
2022/10/08 20:31:23;;;;;;;6.93;1.77;;;;;;;13.54;55.50;101204.72;10424321;28;20503;-73
2022/10/08 20:36:25;;;;;;;6.80;1.40;;;;;;;13.34;55.89;101209.66;10442116;28;20044;-74
2022/10/08 20:41:27;;;;;;;4.40;1.38;;;;;;;13.24;55.85;101210.66;10443973;28;20075;-70
2022/10/08 20:46:33;;;;;;;10.63;4.07;;;;;;;13.10;56.47;101208.69;10438246;28;20048;-72
2022/10/08 20:51:38;;;;;;;4.72;2.65;;;;;;;12.94;56.39;101211.41;10441476;28;20130;-71
2022/10/08 20:56:41;;;;;;;7.40;2.95;;;;;;;12.80;56.72;101213.78;10424560;28;20047;-71
2022/10/08 21:01:43;;;;;;;8.38;3.65;;;;;;;12.70;57.23;101219.34;10444088;28;20060;-72
2022/10/08 21:06:47;;;;;;;11.75;5.40;;;;;;;12.58;57.28;101226.09;10445199;28;20108;-71
2022/10/08 21:11:48;;;;;;;10.98;5.07;;;;;;;12.44;57.86;101232.97;10440321;28;20080;-73
2022/10/08 21:16:50;;;;;;;5.60;3.00;;;;;;;12.34;58.01;101232.25;10412429;28;20051;-74
2022/10/08 21:21:51;;;;;;;7.07;2.85;;;;;;;12.24;58.17;101232.44;10437620;28;20065;-74
2022/10/08 21:26:53;;;;;;;11.32;2.97;;;;;;;12.16;58.52;101229.69;10444670;28;20124;-74
2022/10/08 21:31:54;;;;;;;9.52;4.35;;;;;;;12.07;59.02;101231.53;10423176;28;20067;-75
2022/10/08 21:36:55;;;;;;;12.57;5.75;;;;;;;11.89;59.29;101228.97;10442414;28;20056;-73
2022/10/08 21:41:57;;;;;;;19.50;8.88;;;;;;;11.81;59.12;101238.81;10444414;28;20071;-72
2022/10/08 21:46:58;;;;;;;19.95;11.55;;;;;;;11.75;59.15;101236.78;10442729;28;20153;-70
2022/10/08 21:51:59;;;;;;;21.25;9.55;;;;;;;11.65;59.27;101253.91;10442932;28;20041;-69
2022/10/08 21:57:01;;;;;;;8.82;3.92;;;;;;;11.57;59.83;101261.97;10442999;28;20575;-70
2022/10/08 22:02:02;;;;;;;10.07;4.82;;;;;;;11.45;60.11;101256.00;10442057;28;20057;-72
2022/10/08 22:07:04;;;;;;;3.85;2.83;;;;;;;11.41;60.24;101262.69;10443798;28;20068;-74
2022/10/08 22:12:05;;;;;;;3.15;1.77;;;;;;;11.38;59.92;101265.72;10422177;28;20033;-73
2022/10/08 22:17:07;;;;;;;7.03;2.13;;;;;;;11.37;60.22;101260.47;10424992;28;20120;-71
2022/10/08 22:22:08;;;;;;;5.55;2.40;;;;;;;11.30;60.29;101269.19;10444294;28;20064;-72
2022/10/08 22:27:09;;;;;;;6.10;2.42;;;;;;;11.24;60.48;101266.28;10415609;28;20213;-72
2022/10/08 22:32:11;;;;;;;5.20;2.70;;;;;;;11.18;60.82;101257.00;10446903;28;20080;-73
2022/10/08 22:37:13;;;;;;;10.90;4.32;;;;;;;11.10;60.76;101260.47;10414969;28;20570;-75
2022/10/08 22:42:14;;;;;;;9.18;3.60;;;;;;;11.03;61.00;101255.88;10451775;28;20139;-73
2022/10/08 22:47:16;;;;;;;7.10;3.90;;;;;;;11.03;60.93;101253.19;10449236;28;20080;-72
2022/10/08 22:52:17;;;;;;;7.68;3.53;;;;;;;10.95;61.63;101267.41;10449495;28;20064;-73
2022/10/08 22:57:19;;;;;;;4.28;3.47;;;;;;;10.88;61.59;101256.44;10450388;28;20064;-70
2022/10/08 23:02:20;;;;;;;7.95;3.33;;;;;;;10.82;61.78;101251.69;10448082;28;20695;-74
2022/10/08 23:07:22;;;;;;;26.33;9.95;;;;;;;10.78;61.80;101266.44;10449866;28;20040;-70
2022/10/08 23:12:23;;;;;;;6.85;3.17;;;;;;;10.68;62.22;101258.47;10447395;28;20064;-73
2022/10/08 23:17:24;;;;;;;9.82;4.55;;;;;;;10.64;62.17;101262.47;10445222;28;20131;-74
2022/10/08 23:22:27;;;;;;;7.63;3.92;;;;;;;10.60;62.32;101252.97;10447143;28;20079;-74
2022/10/08 23:27:28;;;;;;;9.13;3.90;;;;;;;10.55;62.53;101255.31;10431084;28;20132;-73